Grantham, PA (17027)

4:28 PM EDT on August 27, 2016 (GMT -0400)
Monroe Acres | | Change Station

Elev 486 ft 40.16 °N, 77.03 °W | Updated 10 minutes ago

Partly Cloudy
Partly Cloudy
90.1 °F
Feels Like 98 °F
N
1.7
Wind Variable Wind from ESE

Today
High -- | Low -- °F
--% Chance of Precip.
Yesterday
High -- | Low -- °F
Precip. -- in
Pressure 30.15 in
Visibility 10.0 miles
Clouds Few 5900 ft
Heat Index 98 °F
Dew Point 72 °F
Humidity 56%
Rainfall 0.00 in
Snow Depth Not available.
6:31 AM 7:46 PM
Waning Crescent, 22% visible
METAR KCXY 271956Z 11006KT 10SM FEW059 32/18 A3016 RMK AO2 SLP210 T03170178
Pressure 30.15 in
Visibility 10.0 miles
Clouds Few 5900 ft
Heat Index 98 °F
Dew Point 72 °F
Humidity 56%
Rainfall 0.00 in
Snow Depth Not available.
6:31 AM 7:46 PM
Waning Crescent, 22% visible
METAR KCXY 271956Z 11006KT 10SM FEW059 32/18 A3016 RMK AO2 SLP210 T03170178

10-Day Weather Forecast

Almanac

Astronomy

Aug. 27, 2016 Rise Set
Actual Time
Civil Twilight
Nautical Twilight
Astronomical Twilight
Moon
Length of Visible Light
Length of Day
Tomorrow will be .
, % of the Moon is Illuminated

Today's Extremes

State Highs State Lows

Community

WunderPhotos

Upload Photos

1,935,434 photos uploaded!

WunderBlog® & News

Nearby

Air Quality

  Air Quality AQ Index Pollutant
Not available.

Snow Depth

Station Depth Elevation

Earthquake Activity

City Distance Mag. Time & Date
Minimum magnitude displayed is 2.5.

Coastal Water Temperatures

Place Temperature

Stations

Nearby Weather Stations

Station Location Temp. Windchill Dew Point Humidity Wind Precip. Elev Updated Type
                   

Watches & Warnings

There are currently no watches in effect.